Time;durP1;ratioP1;P1;durP2;ratioP2;P2;SDS_P1;SDS_P2;PMS_P1;PMS_P2;Temp;Humidity;BMP_temperature;BMP_pressure;BME280_temperature;BME280_humidity;BME280_pressure;Samples;Min_cycle;Max_cycle;Signal;HPM_P1;HPM_P2
2021/10/12 00:02:01;;;;;;;1.48;1.38;;;7.80;99.90;;;;;;4747262;29;20450;-82
2021/10/12 00:05:13;;;;;;;2.78;1.80;;;7.70;99.90;;;;;;4838178;29;20848;-81
2021/10/12 00:12:23;;;;;;;1.52;1.42;;;7.60;99.90;;;;;;4902196;29;20531;-82
2021/10/12 00:15:29;;;;;;;1.50;1.40;;;7.50;99.90;;;;;;4848758;29;20457;-82
2021/10/12 00:18:41;;;;;;;1.73;1.40;;;7.50;99.90;;;;;;4856180;29;20497;-82
2021/10/12 00:22:45;;;;;;;1.42;1.33;;;7.50;99.90;;;;;;4880904;29;20431;-82
2021/10/12 00:26:41;;;;;;;1.58;1.30;;;7.40;99.90;;;;;;4900602;29;21043;-81
2021/10/12 00:30:01;;;;;;;1.00;1.00;;;7.40;99.90;;;;;;4844251;29;20918;-82
2021/10/12 00:59:36;;;;;;;1.63;1.40;;;7.00;99.90;;;;;;4964159;28;20660;-82
2021/10/12 01:07:48;;;;;;;1.70;1.30;;;6.90;99.90;;;;;;4858278;29;20464;-82
2021/10/12 03:19:03;;;;;;;1.70;1.60;;;6.10;99.90;;;;;;4881200;29;20405;-83
2021/10/12 03:22:10;;;;;;;1.90;1.80;;;6.20;99.90;;;;;;4845986;29;20590;-83
2021/10/12 03:25:14;;;;;;;2.00;1.90;;;6.10;99.90;;;;;;4900019;29;20602;-82
2021/10/12 03:28:32;;;;;;;2.08;1.95;;;6.10;99.90;;;;;;4907493;29;20447;-83
2021/10/12 03:31:21;;;;;;;2.13;1.80;;;6.10;99.90;;;;;;4895111;29;20491;-82
2021/10/12 03:43:52;;;;;;;2.28;2.08;;;6.10;99.90;;;;;;4926460;29;20505;-83
2021/10/12 03:48:01;;;;;;;2.97;2.10;;;6.10;99.90;;;;;;4891459;29;20484;-82
2021/10/12 03:52:23;;;;;;;2.28;2.08;;;6.10;99.90;;;;;;4893520;29;20441;-82
2021/10/12 04:34:12;;;;;;;2.70;2.50;;;5.80;99.90;;;;;;4896348;29;20466;-83
2021/10/12 04:38:43;;;;;;;3.03;2.63;;;5.90;99.90;;;;;;4892806;29;20488;-82
2021/10/12 04:42:22;;;;;;;3.40;3.10;;;5.70;99.90;;;;;;4787080;29;20473;-82
2021/10/12 04:45:59;;;;;;;3.78;3.47;;;5.90;99.90;;;;;;4851729;23;21516;-81
2021/10/12 04:48:43;;;;;;;3.60;3.30;;;5.90;99.90;;;;;;4924547;29;20480;-82
2021/10/12 04:51:28;;;;;;;4.30;3.85;;;5.90;99.90;;;;;;4916708;29;20401;-81
2021/10/12 04:54:12;;;;;;;3.47;3.13;;;6.00;99.90;;;;;;4927150;29;20409;-81
2021/10/12 04:56:57;;;;;;;3.03;2.83;;;6.10;99.90;;;;;;4926388;29;20419;-80
2021/10/12 04:59:41;;;;;;;4.40;4.00;;;6.10;99.90;;;;;;4897804;29;20437;-80
2021/10/12 05:06:09;;;;;;;7.30;3.72;;;6.20;99.90;;;;;;4125420;27;20419;-82
2021/10/12 07:34:10;;;;;;;4.25;1.50;;;8.60;99.90;;;;;;5948220;23;21224;-80
2021/10/12 07:40:01;;;;;;;1.50;1.40;;;8.70;99.90;;;;;;5069610;23;20915;-83
2021/10/12 07:43:19;;;;;;;1.27;1.15;;;8.80;99.90;;;;;;4896500;29;20407;-83
2021/10/12 07:46:16;;;;;;;1.83;1.55;;;8.90;99.90;;;;;;4918670;29;20433;-83
2021/10/12 11:58:33;;;;;;;0.70;0.70;;;10.80;99.90;;;;;;5477671;23;20408;-80
2021/10/12 12:01:28;;;;;;;1.90;0.80;;;10.20;99.90;;;;;;4900071;29;20518;-81
2021/10/12 12:04:51;;;;;;;0.80;0.80;;;10.10;99.90;;;;;;4919220;29;20489;-82
2021/10/12 12:08:24;;;;;;;1.40;1.30;;;10.10;99.90;;;;;;4896566;29;20979;-81
2021/10/12 12:11:11;;;;;;;2.72;1.92;;;10.10;99.90;;;;;;4902475;29;20505;-82
2021/10/12 12:15:09;;;;;;;1.50;1.40;;;10.20;99.90;;;;;;4883885;29;20449;-86
2021/10/12 12:18:11;;;;;;;0.88;0.88;;;10.40;99.90;;;;;;4904886;29;20507;-84
2021/10/12 12:23:57;;;;;;;0.80;0.80;;;10.50;99.90;;;;;;4943345;28;20488;-86
2021/10/12 12:26:42;;;;;;;0.90;0.90;;;10.40;99.90;;;;;;4948831;28;20421;-88
2021/10/12 12:29:26;;;;;;;1.27;1.17;;;10.60;99.90;;;;;;4947868;29;20461;-88
2021/10/12 12:32:14;;;;;;;0.80;0.80;;;10.70;99.90;;;;;;4939910;29;20424;-87
2021/10/12 12:39:59;;;;;;;0.70;0.70;;;10.70;99.90;;;;;;4963956;29;20409;-89
2021/10/12 12:42:43;;;;;;;1.30;0.53;;;10.70;99.90;;;;;;4927952;29;20467;-87
2021/10/12 12:45:28;;;;;;;0.60;0.60;;;10.80;99.90;;;;;;4953011;29;20430;-83
2021/10/12 12:48:22;;;;;;;0.88;0.88;;;10.80;99.90;;;;;;4921300;29;20445;-85
2021/10/12 12:51:09;;;;;;;0.65;0.65;;;10.70;99.90;;;;;;4936665;29;20475;-85
2021/10/12 12:53:56;;;;;;;1.05;0.80;;;10.70;99.90;;;;;;4932051;29;21055;-87
2021/10/12 12:56:40;;;;;;;0.77;0.77;;;10.70;99.90;;;;;;4951654;29;20423;-83
2021/10/12 12:59:25;;;;;;;0.67;0.67;;;10.90;99.90;;;;;;4948353;29;20409;-85
2021/10/12 13:02:34;;;;;;;0.75;0.70;;;10.90;99.90;;;;;;4947546;29;20485;-86
2021/10/12 13:05:18;;;;;;;0.65;0.65;;;10.90;99.90;;;;;;4943373;29;20413;-88
2021/10/12 13:08:08;;;;;;;0.75;0.75;;;10.90;99.90;;;;;;4947387;29;20452;-87
2021/10/12 13:10:52;;;;;;;0.90;0.90;;;10.80;99.90;;;;;;4964390;29;20401;-85
2021/10/12 13:13:37;;;;;;;0.55;0.55;;;10.70;99.90;;;;;;4954918;29;20409;-88
2021/10/12 13:16:22;;;;;;;0.80;0.80;;;10.80;99.90;;;;;;4955240;29;20426;-89
2021/10/12 13:19:07;;;;;;;1.92;1.00;;;10.90;99.90;;;;;;4943491;29;20418;-90
2021/10/12 13:21:52;;;;;;;1.10;1.10;;;10.80;99.90;;;;;;4954082;29;20413;-88
2021/10/12 13:24:36;;;;;;;0.70;0.70;;;10.80;99.90;;;;;;4942936;29;20550;-87
2021/10/12 13:27:22;;;;;;;0.80;0.80;;;10.70;99.90;;;;;;4932593;28;20455;-84
2021/10/12 13:30:07;;;;;;;0.80;0.80;;;10.80;99.90;;;;;;4958196;29;20409;-84
2021/10/12 13:32:52;;;;;;;1.10;1.07;;;10.80;99.90;;;;;;4947001;29;20439;-83
2021/10/12 13:35:37;;;;;;;1.30;0.93;;;10.80;99.90;;;;;;4934060;29;20417;-88
2021/10/12 13:38:21;;;;;;;0.90;0.90;;;10.80;99.90;;;;;;4946963;29;20405;-87
2021/10/12 13:41:06;;;;;;;0.85;0.80;;;10.80;99.90;;;;;;4929380;29;20437;-86
2021/10/12 13:43:51;;;;;;;0.80;0.80;;;10.90;99.90;;;;;;4944616;29;20453;-89
2021/10/12 13:46:37;;;;;;;1.17;0.77;;;10.90;99.90;;;;;;4945287;29;20467;-85
2021/10/12 13:49:22;;;;;;;0.82;0.82;;;10.90;99.90;;;;;;4948297;29;20479;-86
2021/10/12 13:52:07;;;;;;;0.70;0.70;;;10.90;99.90;;;;;;4964021;29;20425;-87
2021/10/12 13:54:51;;;;;;;0.73;0.73;;;10.90;99.90;;;;;;4944695;29;21197;-86
2021/10/12 13:57:38;;;;;;;0.83;0.83;;;10.90;99.90;;;;;;4926502;28;20897;-87
2021/10/12 14:00:22;;;;;;;0.90;0.90;;;10.90;99.90;;;;;;4954129;29;21060;-87
2021/10/12 14:03:09;;;;;;;0.88;0.88;;;10.80;99.90;;;;;;4950952;28;20420;-89
2021/10/12 14:06:12;;;;;;;1.10;1.00;;;10.80;99.90;;;;;;4946253;29;20425;-87
2021/10/12 14:08:57;;;;;;;0.90;0.90;;;10.70;99.90;;;;;;4943811;29;20548;-86
2021/10/12 14:11:42;;;;;;;1.10;1.00;;;10.70;99.90;;;;;;4946862;29;20431;-83
2021/10/12 14:14:27;;;;;;;0.90;0.90;;;10.70;99.90;;;;;;4938668;29;20441;-89
2021/10/12 14:17:13;;;;;;;1.00;0.95;;;10.60;99.90;;;;;;4949533;29;20397;-89
2021/10/12 14:19:57;;;;;;;0.77;0.77;;;10.60;99.90;;;;;;4937962;29;20409;-87
2021/10/12 14:22:42;;;;;;;0.80;0.80;;;10.60;99.90;;;;;;4939016;29;20459;-87
2021/10/12 14:25:26;;;;;;;0.70;0.70;;;10.70;99.90;;;;;;4953346;28;20440;-85
2021/10/12 14:28:11;;;;;;;2.20;1.00;;;10.80;99.90;;;;;;4963141;29;20418;-88
2021/10/12 14:30:56;;;;;;;0.70;0.70;;;10.80;99.90;;;;;;4951933;28;20440;-85
2021/10/12 14:33:40;;;;;;;0.82;0.82;;;10.90;99.90;;;;;;4949407;28;20410;-86
2021/10/12 14:36:25;;;;;;;0.70;0.63;;;10.90;99.90;;;;;;4938488;28;20541;-88
2021/10/12 14:39:09;;;;;;;1.15;1.15;;;10.90;99.90;;;;;;4952995;28;20408;-88
2021/10/12 14:41:54;;;;;;;0.70;0.70;;;10.90;99.90;;;;;;4952676;28;20413;-86
2021/10/12 14:44:38;;;;;;;0.85;0.85;;;10.90;99.90;;;;;;4924937;29;20489;-88
2021/10/12 14:47:24;;;;;;;1.75;1.00;;;10.90;99.90;;;;;;4950867;28;20432;-88
2021/10/12 14:50:09;;;;;;;0.70;0.70;;;10.90;99.90;;;;;;4949663;28;20500;-88
2021/10/12 14:52:54;;;;;;;2.28;0.95;;;10.90;99.90;;;;;;4953349;29;20450;-87
2021/10/12 14:55:38;;;;;;;0.85;0.85;;;10.90;99.90;;;;;;4936818;29;20392;-84
2021/10/12 14:58:23;;;;;;;0.70;0.70;;;10.80;99.90;;;;;;4969338;23;20400;-82
2021/10/12 15:01:21;;;;;;;0.80;0.80;;;10.80;99.90;;;;;;4887035;28;20463;-89
2021/10/12 16:34:09;;;;;;;0.80;0.80;;;9.00;99.90;;;;;;4975138;23;20409;-80
2021/10/12 16:37:00;;;;;;;0.70;0.70;;;8.70;99.90;;;;;;4901310;29;20430;-80
2021/10/12 16:39:49;;;;;;;1.77;0.95;;;8.80;99.90;;;;;;4882521;29;20415;-80
2021/10/12 16:42:36;;;;;;;1.10;1.10;;;8.60;99.90;;;;;;4877770;29;20557;-80
2021/10/12 16:45:22;;;;;;;1.50;0.90;;;8.60;99.90;;;;;;4893470;29;20445;-80
2021/10/12 16:51:18;;;;;;;1.00;1.00;;;8.60;99.90;;;;;;5040698;23;20406;-80
2021/10/12 16:54:03;;;;;;;1.23;1.23;;;8.50;99.90;;;;;;4924271;29;20411;-81
2021/10/12 16:56:50;;;;;;;0.70;0.70;;;8.40;99.90;;;;;;4902261;29;20419;-80
2021/10/12 16:59:39;;;;;;;1.00;1.00;;;8.30;99.90;;;;;;5075839;23;20420;-81
2021/10/12 17:02:28;;;;;;;1.00;1.00;;;8.10;99.90;;;;;;4910767;29;20509;-81
2021/10/12 17:05:17;;;;;;;1.70;1.60;;;8.20;99.90;;;;;;4914643;29;20445;-81
2021/10/12 17:08:02;;;;;;;1.80;1.70;;;8.00;99.90;;;;;;4883707;29;20476;-81
2021/10/12 17:10:49;;;;;;;1.95;1.85;;;7.90;99.90;;;;;;4849323;29;20409;-81
2021/10/12 17:13:39;;;;;;;1.63;1.52;;;7.80;99.90;;;;;;4869313;29;20903;-81
2021/10/12 17:16:29;;;;;;;2.03;1.83;;;7.70;99.90;;;;;;4895484;29;20409;-79
2021/10/12 17:19:14;;;;;;;2.30;2.10;;;7.70;99.90;;;;;;4884245;29;20412;-79
2021/10/12 17:22:00;;;;;;;2.55;2.35;;;7.50;99.90;;;;;;4885710;29;20420;-79
2021/10/12 17:24:53;;;;;;;2.65;2.00;;;7.40;99.90;;;;;;4876298;29;20508;-80
2021/10/12 17:27:39;;;;;;;3.38;1.67;;;7.50;99.90;;;;;;4869599;29;20484;-79
2021/10/12 17:30:23;;;;;;;1.80;1.70;;;7.50;99.90;;;;;;4879808;29;20410;-79
2021/10/12 17:33:09;;;;;;;3.00;2.13;;;7.50;99.90;;;;;;4905356;29;20419;-79
2021/10/12 17:35:54;;;;;;;1.80;1.70;;;7.50;99.90;;;;;;4902439;29;20420;-79
2021/10/12 17:38:40;;;;;;;3.97;2.05;;;7.40;99.90;;;;;;4875785;29;20407;-79
2021/10/12 17:41:30;;;;;;;1.77;1.67;;;7.20;99.90;;;;;;4888839;29;20478;-81
2021/10/12 17:44:18;;;;;;;1.60;1.50;;;7.10;99.90;;;;;;4890016;29;20455;-81
2021/10/12 17:47:07;;;;;;;1.60;1.50;;;7.00;99.90;;;;;;4901740;29;20493;-81
2021/10/12 17:50:40;;;;;;;1.90;1.50;;;7.00;99.90;;;;;;4868360;29;20435;-82
2021/10/12 17:54:35;;;;;;;1.45;1.35;;;7.00;99.90;;;;;;4847080;29;20513;-82
2021/10/12 18:01:12;;;;;;;1.63;1.50;;;6.70;99.90;;;;;;5931579;23;20423;-81
2021/10/12 18:53:10;;;;;;;1.77;1.67;;;5.70;99.90;;;;;;5568738;23;20927;-81
2021/10/12 18:55:55;;;;;;;1.63;1.52;;;5.80;99.90;;;;;;4885791;29;20461;-81
2021/10/12 18:58:42;;;;;;;1.67;1.58;;;5.60;99.90;;;;;;4924526;29;20461;-81
2021/10/12 19:01:27;;;;;;;1.50;1.40;;;5.70;99.90;;;;;;4878602;29;20881;-81
2021/10/12 19:04:14;;;;;;;1.80;1.50;;;5.60;99.90;;;;;;4853618;29;20444;-81
2021/10/12 19:11:20;;;;;;;1.30;1.20;;;5.60;99.90;;;;;;5714176;23;20756;-80
2021/10/12 19:14:10;;;;;;;1.30;1.20;;;5.50;99.90;;;;;;4856998;29;20927;-80
2021/10/12 19:16:57;;;;;;;1.25;1.20;;;5.60;99.90;;;;;;4850234;29;20414;-80
2021/10/12 19:19:46;;;;;;;1.35;1.27;;;5.60;99.90;;;;;;4904959;29;20470;-80
2021/10/12 19:22:32;;;;;;;1.50;1.40;;;5.60;99.90;;;;;;4859004;29;20842;-80
2021/10/12 19:25:18;;;;;;;3.45;1.85;;;5.60;99.90;;;;;;4850228;29;20468;-81
2021/10/12 19:28:04;;;;;;;2.70;2.50;;;5.40;99.90;;;;;;4855306;29;20477;-80
2021/10/12 19:30:54;;;;;;;1.80;1.70;;;5.50;99.90;;;;;;4842530;29;20456;-80
2021/10/12 19:33:41;;;;;;;1.63;1.52;;;5.20;99.90;;;;;;4838156;29;20971;-80
2021/10/12 19:36:27;;;;;;;1.30;1.20;;;5.10;99.90;;;;;;4867314;29;20770;-80
2021/10/12 19:39:18;;;;;;;1.30;1.30;;;5.30;99.90;;;;;;4850613;29;20454;-80
2021/10/12 19:42:06;;;;;;;1.33;1.30;;;5.20;99.90;;;;;;4867934;29;20505;-80
2021/10/12 19:44:52;;;;;;;1.10;1.10;;;5.20;99.90;;;;;;4845001;29;20442;-80
2021/10/12 19:47:45;;;;;;;1.55;1.45;;;5.30;99.90;;;;;;4861174;29;20408;-80
2021/10/12 19:50:40;;;;;;;1.40;1.30;;;5.30;99.90;;;;;;4844761;29;20812;-80
2021/10/12 19:53:28;;;;;;;1.40;1.30;;;5.20;99.90;;;;;;4822472;29;20782;-81
2021/10/12 19:56:15;;;;;;;1.55;1.45;;;5.10;99.90;;;;;;4881278;29;20494;-80
2021/10/12 19:59:10;;;;;;;1.70;1.60;;;5.00;99.90;;;;;;4852213;29;20426;-81
2021/10/12 20:05:00;;;;;;;1.55;1.45;;;5.00;99.90;;;;;;4857652;29;20492;-80
2021/10/12 20:23:01;;;;;;;1.80;1.70;;;4.80;99.90;;;;;;5626105;24;20443;-80
2021/10/12 20:25:47;;;;;;;1.52;1.42;;;4.70;99.90;;;;;;4773784;29;20490;-80
2021/10/12 20:28:33;;;;;;;1.83;1.60;;;4.70;99.90;;;;;;4775805;29;20422;-80
2021/10/12 20:31:20;;;;;;;0.90;0.90;;;4.50;99.90;;;;;;4801840;29;20428;-80
2021/10/12 20:34:05;;;;;;;1.13;1.05;;;4.60;99.90;;;;;;4801017;29;21050;-80
2021/10/12 20:36:53;;;;;;;2.13;1.10;;;4.60;99.90;;;;;;4800021;29;20800;-80
2021/10/12 20:45:45;;;;;;;1.07;1.07;;;4.30;99.90;;;;;;5215882;24;20428;-80
2021/10/12 20:48:35;;;;;;;0.80;0.80;;;4.30;99.90;;;;;;4765937;30;20452;-80
2021/10/12 20:51:25;;;;;;;1.35;1.25;;;4.40;99.90;;;;;;4776144;30;20432;-80
2021/10/12 20:54:11;;;;;;;1.00;1.00;;;4.20;99.90;;;;;;4779340;30;20499;-80
2021/10/12 20:56:56;;;;;;;1.00;1.00;;;4.20;99.90;;;;;;4766301;30;20931;-80
2021/10/12 21:11:33;;;;;;;1.10;1.00;;;4.10;99.90;;;;;;5006783;24;20431;-80
2021/10/12 21:14:22;;;;;;;0.90;0.90;;;4.00;99.90;;;;;;4794147;29;20430;-80
2021/10/12 21:17:08;;;;;;;1.40;1.30;;;4.00;99.90;;;;;;4780904;29;20414;-80
2021/10/12 21:19:54;;;;;;;1.23;1.10;;;4.10;99.90;;;;;;4775943;29;20430;-82
2021/10/12 21:22:40;;;;;;;1.10;1.10;;;4.00;99.90;;;;;;4769177;29;20971;-80
2021/10/12 21:25:27;;;;;;;1.20;1.20;;;4.00;99.90;;;;;;4777411;29;20419;-80
2021/10/12 21:31:56;;;;;;;1.10;1.00;;;3.80;99.90;;;;;;5836967;24;20415;31
2021/10/12 21:34:43;;;;;;;1.15;1.05;;;3.70;99.90;;;;;;4750485;30;20443;-80
2021/10/12 21:37:29;;;;;;;1.10;1.10;;;3.80;99.90;;;;;;4751077;30;20433;-80
2021/10/12 21:40:15;;;;;;;0.90;0.90;;;3.70;99.90;;;;;;4715951;30;20435;-80
2021/10/12 21:43:02;;;;;;;1.10;1.10;;;3.70;99.90;;;;;;4748441;30;20430;-80
2021/10/12 21:45:48;;;;;;;0.82;0.82;;;3.70;99.90;;;;;;4709872;30;20510;-80
2021/10/12 21:48:34;;;;;;;1.00;1.00;;;3.70;99.90;;;;;;4731545;30;20418;-80
2021/10/12 21:51:21;;;;;;;1.00;1.00;;;3.80;99.90;;;;;;4733331;30;20484;-81
2021/10/12 21:54:07;;;;;;;1.30;1.20;;;3.70;99.90;;;;;;4740372;30;20490;-81
2021/10/12 21:56:53;;;;;;;1.00;1.00;;;3.70;99.90;;;;;;4744460;30;20574;-80
2021/10/12 22:06:26;;;;;;;0.80;0.80;;;3.50;99.90;;;;;;4798022;24;20436;-80
2021/10/12 22:09:13;;;;;;;2.00;1.27;;;3.30;99.90;;;;;;4765336;30;20517;-80
2021/10/12 22:11:59;;;;;;;0.90;0.90;;;3.40;99.90;;;;;;4773638;30;20439;-80
2021/10/12 22:14:45;;;;;;;1.70;1.25;;;3.40;99.90;;;;;;4742268;30;20430;-80
2021/10/12 22:21:07;;;;;;;0.90;0.90;;;3.10;99.90;;;;;;5562367;24;20468;-80
2021/10/12 22:23:57;;;;;;;3.10;1.15;;;3.40;99.90;;;;;;4788151;29;20447;-80
2021/10/12 22:26:43;;;;;;;0.95;0.95;;;3.40;99.90;;;;;;4778780;29;20577;-80
2021/10/12 22:35:37;;;;;;;1.80;1.13;;;3.40;99.90;;;;;;5712504;24;20393;-80
2021/10/12 22:45:06;;;;;;;0.70;0.70;;;3.30;99.90;;;;;;4795270;29;20971;-81
2021/10/12 22:47:52;;;;;;;0.90;0.90;;;3.20;99.90;;;;;;4769984;29;20425;-80
2021/10/12 22:50:40;;;;;;;1.30;1.17;;;3.00;99.90;;;;;;4762325;29;20430;-81
2021/10/12 22:53:25;;;;;;;1.20;1.10;;;3.20;99.90;;;;;;4778573;29;20482;-81
2021/10/12 22:56:11;;;;;;;1.00;1.00;;;3.10;99.90;;;;;;4786066;29;20431;-80
2021/10/12 22:59:00;;;;;;;0.90;0.90;;;3.10;99.90;;;;;;4771720;30;20433;-80
2021/10/12 23:01:45;;;;;;;0.70;0.70;;;3.20;99.90;;;;;;4782496;29;20440;-81
2021/10/12 23:04:34;;;;;;;1.00;1.00;;;3.20;99.90;;;;;;4781586;29;20477;-80
2021/10/12 23:22:57;;;;;;;0.80;0.80;;;3.10;99.90;;;;;;5499303;24;20558;-80
2021/10/12 23:25:43;;;;;;;0.80;0.80;;;3.10;99.90;;;;;;4766895;29;20502;-80
2021/10/12 23:31:25;;;;;;;0.82;0.82;;;3.10;99.90;;;;;;5541482;24;20452;-80
2021/10/12 23:34:15;;;;;;;0.88;0.88;;;3.10;99.90;;;;;;4780594;29;20433;-80
2021/10/12 23:37:04;;;;;;;0.80;0.80;;;3.10;99.90;;;;;;4776017;30;20475;-80
2021/10/12 23:39:53;;;;;;;0.90;0.90;;;3.10;99.90;;;;;;4746815;30;20475;-80
2021/10/12 23:42:39;;;;;;;0.68;0.68;;;3.00;99.90;;;;;;4745417;30;20433;-80
2021/10/12 23:45:25;;;;;;;1.00;0.90;;;2.90;99.90;;;;;;4757285;30;20453;-80
2021/10/12 23:48:11;;;;;;;0.70;0.70;;;2.90;99.90;;;;;;4746838;30;20441;-80
2021/10/12 23:50:57;;;;;;;0.80;0.80;;;3.00;99.90;;;;;;4749521;30;20499;-80
2021/10/12 23:53:44;;;;;;;0.90;0.90;;;2.90;99.90;;;;;;4731839;30;20935;-80
2021/10/12 23:56:30;;;;;;;0.77;0.77;;;3.00;99.90;;;;;;4743302;30;20428;-80
